createdAt,value
2023-05-01T00:01:43.393Z,2.20
2023-05-01T00:04:10.240Z,1.97
2023-05-01T00:06:37.722Z,1.47
2023-05-01T00:09:04.440Z,1.93
2023-05-01T00:11:31.377Z,1.50
2023-05-01T00:13:57.994Z,1.70
2023-05-01T00:16:24.590Z,1.57
2023-05-01T00:18:51.240Z,1.90
2023-05-01T00:21:18.074Z,1.70
2023-05-01T00:23:44.681Z,1.63
2023-05-01T00:26:11.305Z,2.10
2023-05-01T00:28:37.875Z,1.33
2023-05-01T00:31:04.614Z,1.37
2023-05-01T00:33:31.256Z,2.23
2023-05-01T00:35:57.826Z,1.77
2023-05-01T00:38:24.509Z,1.77
2023-05-01T00:40:51.109Z,1.77
2023-05-01T00:43:17.722Z,1.83
2023-05-01T00:45:46.301Z,1.80
2023-05-01T00:48:13.159Z,1.83
2023-05-01T00:50:40.802Z,1.90
2023-05-01T00:53:07.531Z,1.83
2023-05-01T00:55:35.831Z,1.47
2023-05-01T00:58:03.417Z,1.73
2023-05-01T01:00:30.055Z,1.97
2023-05-01T01:02:57.001Z,2.00
2023-05-01T01:05:27.260Z,1.57
2023-05-01T01:08:05.653Z,1.97
2023-05-01T01:10:54.476Z,2.00
2023-05-01T01:13:29.009Z,1.60
2023-05-01T01:16:15.779Z,1.77
2023-05-01T01:19:01.343Z,2.10
2023-05-01T01:21:42.784Z,2.40
2023-05-01T01:24:37.321Z,1.93
2023-05-01T01:27:20.454Z,1.70
2023-05-01T01:30:03.406Z,2.10
2023-05-01T01:33:09.212Z,1.67
2023-05-01T01:35:38.865Z,2.40
2023-05-01T01:38:11.731Z,2.10
2023-05-01T01:40:50.438Z,2.47
2023-05-01T01:43:20.103Z,2.20
2023-05-01T01:45:49.857Z,1.90
2023-05-01T01:48:21.591Z,2.27
2023-05-01T01:50:48.989Z,2.17
2023-05-01T01:53:18.762Z,2.60
2023-05-01T01:55:47.350Z,2.23
2023-05-01T01:58:17.033Z,1.83
2023-05-01T02:00:45.401Z,2.00
2023-05-01T02:03:13.802Z,2.60
2023-05-01T02:05:43.506Z,1.90
2023-05-01T02:08:11.707Z,2.73
2023-05-01T02:10:40.066Z,2.83
2023-05-01T02:13:07.242Z,3.20
2023-05-01T02:15:34.822Z,2.60
2023-05-01T02:18:04.972Z,3.17
2023-05-01T02:20:32.904Z,2.80
2023-05-01T02:23:00.005Z,2.70
2023-05-01T02:25:30.065Z,2.90
2023-05-01T02:28:02.640Z,2.20
2023-05-01T02:30:29.318Z,3.27
2023-05-01T02:32:57.608Z,2.57
2023-05-01T02:35:24.429Z,2.50
2023-05-01T02:37:51.422Z,2.97
2023-05-01T02:40:18.620Z,2.07
2023-05-01T02:42:47.939Z,2.60
2023-05-01T02:45:23.615Z,2.50
2023-05-01T02:47:52.830Z,2.50
2023-05-01T02:50:20.304Z,2.87
2023-05-01T02:52:47.776Z,2.90
2023-05-01T02:55:15.150Z,2.67
2023-05-01T02:57:41.870Z,2.37
2023-05-01T03:00:09.983Z,3.07
2023-05-01T03:02:36.684Z,3.00
2023-05-01T03:05:03.372Z,2.90
2023-05-01T03:07:34.976Z,2.40
2023-05-01T03:10:03.882Z,2.80
2023-05-01T03:12:33.894Z,2.90
2023-05-01T03:15:00.551Z,2.63
2023-05-01T03:17:27.389Z,3.07
2023-05-01T03:19:54.145Z,2.40
2023-05-01T03:22:20.928Z,2.43
2023-05-01T03:24:47.732Z,3.03
2023-05-01T03:27:14.503Z,3.00
2023-05-01T03:29:41.123Z,2.20
2023-05-01T03:32:07.792Z,3.10
2023-05-01T03:34:34.780Z,2.53
2023-05-01T03:37:01.349Z,2.70
2023-05-01T03:39:28.534Z,2.73
2023-05-01T03:41:55.130Z,1.97
2023-05-01T03:44:21.679Z,2.60
2023-05-01T03:46:48.275Z,2.43
2023-05-01T03:49:14.832Z,2.23
2023-05-01T03:51:41.406Z,2.27
2023-05-01T03:54:08.208Z,2.40
2023-05-01T03:56:36.463Z,2.53
2023-05-01T03:59:03.084Z,2.83
2023-05-01T04:01:29.714Z,2.10
2023-05-01T04:03:56.392Z,2.07
2023-05-01T04:06:23.624Z,3.00
2023-05-01T04:08:50.256Z,3.17
2023-05-01T04:11:16.841Z,2.70
2023-05-01T04:13:43.405Z,2.37
2023-05-01T04:16:10.128Z,2.13
2023-05-01T04:18:36.747Z,2.70
2023-05-01T04:21:03.650Z,2.37
2023-05-01T04:23:30.256Z,2.23
2023-05-01T04:25:57.038Z,1.97
2023-05-01T04:28:23.999Z,2.53
2023-05-01T04:30:50.820Z,2.37
2023-05-01T04:33:17.452Z,2.10
2023-05-01T04:35:44.107Z,2.17
2023-05-01T04:38:10.908Z,2.67
2023-05-01T04:40:37.660Z,2.70
2023-05-01T04:43:04.274Z,2.97
2023-05-01T04:45:30.869Z,2.83
2023-05-01T04:47:57.526Z,2.73
2023-05-01T04:50:24.314Z,2.53
2023-05-01T04:52:50.977Z,2.23
2023-05-01T04:55:18.503Z,1.87
2023-05-01T04:57:45.184Z,2.43
2023-05-01T05:00:12.349Z,2.63
2023-05-01T05:02:39.311Z,2.17
2023-05-01T05:05:06.540Z,2.27
2023-05-01T05:07:33.106Z,2.37
2023-05-01T05:09:59.653Z,2.23
2023-05-01T05:12:26.199Z,2.17
2023-05-01T05:14:53.267Z,2.43
2023-05-01T05:17:19.840Z,2.53
2023-05-01T05:19:46.547Z,3.10
2023-05-01T05:22:13.141Z,2.43
2023-05-01T05:24:39.749Z,2.83
2023-05-01T05:27:07.102Z,2.50
2023-05-01T05:29:34.863Z,2.13
2023-05-01T05:32:01.844Z,2.83
2023-05-01T05:34:28.499Z,2.37
2023-05-01T05:36:55.148Z,2.10
2023-05-01T05:39:23.601Z,2.80
2023-05-01T05:41:52.960Z,2.60
2023-05-01T05:44:20.323Z,1.97
2023-05-01T05:46:47.526Z,2.23
2023-05-01T05:49:14.319Z,2.07
2023-05-01T05:51:40.940Z,3.13
2023-05-01T05:54:07.693Z,2.70
2023-05-01T05:56:34.247Z,2.70
2023-05-01T05:59:03.443Z,3.00
2023-05-01T06:01:30.401Z,2.33
2023-05-01T06:03:57.006Z,2.83
2023-05-01T06:06:24.191Z,2.90
2023-05-01T06:08:50.803Z,2.50
2023-05-01T06:11:17.550Z,2.50
2023-05-01T06:13:44.144Z,2.50
2023-05-01T06:16:11.087Z,2.67
2023-05-01T06:18:37.863Z,3.00
2023-05-01T06:21:04.598Z,2.50
2023-05-01T06:23:31.794Z,2.70
2023-05-01T06:25:58.806Z,2.93
2023-05-01T06:28:25.599Z,2.30
2023-05-01T06:30:52.188Z,2.50
2023-05-01T06:33:18.953Z,2.77
2023-05-01T06:35:45.714Z,2.90
2023-05-01T06:38:12.267Z,2.77
2023-05-01T06:40:38.869Z,2.70
2023-05-01T06:43:05.540Z,2.67
2023-05-01T06:45:32.282Z,2.60
2023-05-01T06:47:59.155Z,2.80
2023-05-01T06:50:26.030Z,3.38
2023-05-01T06:52:52.609Z,3.00
2023-05-01T06:55:19.281Z,2.93
2023-05-01T06:57:45.904Z,2.97
2023-05-01T07:00:13.670Z,2.58
2023-05-01T07:02:40.898Z,2.78
2023-05-01T07:05:07.848Z,2.70
2023-05-01T07:07:34.900Z,2.50
2023-05-01T07:10:01.658Z,2.80
2023-05-01T07:12:29.526Z,2.53
2023-05-01T07:14:56.877Z,2.40
2023-05-01T07:17:23.803Z,3.00
2023-05-01T07:19:50.556Z,2.83
2023-05-01T07:22:17.137Z,2.60
2023-05-01T07:24:44.173Z,2.70
2023-05-01T07:27:10.717Z,2.38
2023-05-01T07:29:39.897Z,2.42
2023-05-01T07:32:07.474Z,2.60
2023-05-01T07:34:34.481Z,2.70
2023-05-01T07:37:01.050Z,2.50
2023-05-01T07:39:27.793Z,2.70
2023-05-01T07:41:54.453Z,2.40
2023-05-01T07:44:21.082Z,2.70
2023-05-01T07:46:47.687Z,2.55
2023-05-01T07:49:14.470Z,2.60
2023-05-01T07:51:42.244Z,2.53
2023-05-01T07:54:08.796Z,2.65
2023-05-01T07:56:35.391Z,2.38
2023-05-01T07:59:02.048Z,2.50
2023-05-01T08:01:28.674Z,2.53
2023-05-01T08:03:55.404Z,2.50
2023-05-01T08:06:22.086Z,2.22
2023-05-01T08:08:48.663Z,2.50
2023-05-01T08:11:16.248Z,2.80
2023-05-01T08:13:42.873Z,2.20
2023-05-01T08:16:09.568Z,2.15
2023-05-01T08:18:36.198Z,2.33
2023-05-01T08:21:03.012Z,2.72
2023-05-01T08:23:29.902Z,2.13
2023-05-01T08:25:56.745Z,2.30
2023-05-01T08:28:23.471Z,2.75
2023-05-01T08:30:50.242Z,2.10
2023-05-01T08:33:16.959Z,2.20
2023-05-01T08:35:43.586Z,2.58
2023-05-01T08:38:11.729Z,2.47
2023-05-01T08:40:40.867Z,2.35
2023-05-01T08:43:07.602Z,2.40
2023-05-01T08:45:37.356Z,2.28
2023-05-01T08:48:07.549Z,2.20
2023-05-01T08:50:37.972Z,1.90
2023-05-01T08:53:05.596Z,1.75
2023-05-01T08:55:33.296Z,2.17
2023-05-01T08:58:01.347Z,2.10
2023-05-01T09:00:29.660Z,2.17
2023-05-01T09:03:00.466Z,1.80
2023-05-01T09:05:27.143Z,1.80
2023-05-01T09:07:55.335Z,1.60
2023-05-01T09:10:22.243Z,1.60
2023-05-01T09:12:56.055Z,2.17
2023-05-01T09:15:24.028Z,2.05
2023-05-01T09:17:50.916Z,2.00
2023-05-01T09:20:19.711Z,1.80
2023-05-01T09:22:46.858Z,1.80
2023-05-01T09:25:13.405Z,1.80
2023-05-01T09:27:39.996Z,1.70
2023-05-01T09:30:07.498Z,1.73
2023-05-01T09:32:34.252Z,1.88
2023-05-01T09:35:14.776Z,2.05
2023-05-01T09:37:42.118Z,1.73
2023-05-01T09:40:14.059Z,1.80
2023-05-01T09:42:48.868Z,1.75
2023-05-01T09:45:18.828Z,1.70
2023-05-01T09:47:46.807Z,1.75
2023-05-01T09:50:30.957Z,1.50
2023-05-01T09:52:57.821Z,1.45
2023-05-01T09:55:25.569Z,1.88
2023-05-01T09:57:53.233Z,1.70
2023-05-01T10:00:21.997Z,2.10
2023-05-01T10:02:49.882Z,1.65
2023-05-01T10:05:17.406Z,1.70
2023-05-01T10:07:57.405Z,1.83
2023-05-01T10:10:24.185Z,1.30
2023-05-01T10:12:51.336Z,1.55
2023-05-01T10:15:25.542Z,1.40
2023-05-01T10:17:54.156Z,1.50
2023-05-01T10:20:21.319Z,1.63
2023-05-01T10:22:48.924Z,1.65
2023-05-01T10:25:17.499Z,1.50
2023-05-01T10:27:44.201Z,1.75
2023-05-01T10:30:11.246Z,1.70
2023-05-01T10:32:41.719Z,1.45
2023-05-01T10:35:19.475Z,1.50
2023-05-01T10:38:04.858Z,1.70
2023-05-01T10:40:43.255Z,1.52
2023-05-01T10:43:19.410Z,1.52
2023-05-01T10:45:47.494Z,1.48
2023-05-01T10:48:45.256Z,1.17
2023-05-01T10:51:21.552Z,1.30
2023-05-01T10:54:14.061Z,1.17
2023-05-01T10:56:43.085Z,0.95
2023-05-01T10:59:10.480Z,1.30
2023-05-01T11:01:47.911Z,1.15
2023-05-01T11:04:21.665Z,1.10
2023-05-01T11:07:14.550Z,1.10
2023-05-01T11:09:44.008Z,1.17
2023-05-01T11:12:12.210Z,1.35
2023-05-01T11:14:54.333Z,1.42
2023-05-01T11:17:40.609Z,1.38
2023-05-01T11:20:08.723Z,1.58
2023-05-01T11:22:36.776Z,1.27
2023-05-01T11:25:05.295Z,1.05
2023-05-01T11:27:32.213Z,1.20
2023-05-01T11:29:59.585Z,1.20
2023-05-01T11:32:32.111Z,1.23
2023-05-01T11:34:59.301Z,1.33
2023-05-01T11:37:44.901Z,1.50
2023-05-01T11:40:31.748Z,1.15
2023-05-01T11:43:08.519Z,1.45
2023-05-01T11:45:36.722Z,1.38
2023-05-01T11:48:04.890Z,1.45
2023-05-01T11:50:36.290Z,1.30
2023-05-01T11:53:04.337Z,1.02
2023-05-01T11:55:32.574Z,1.10
2023-05-01T11:57:59.543Z,1.30
2023-05-01T12:00:36.562Z,1.30
2023-05-01T12:03:08.613Z,1.20
2023-05-01T12:05:37.518Z,1.33
2023-05-01T12:08:10.355Z,1.40
2023-05-01T12:10:38.502Z,1.30
2023-05-01T12:13:07.234Z,1.42
2023-05-01T12:15:39.598Z,1.30
2023-05-01T12:18:07.086Z,1.15
2023-05-01T12:20:43.361Z,1.52
2023-05-01T12:23:11.828Z,1.40
2023-05-01T12:25:39.639Z,1.50
2023-05-01T12:28:19.380Z,1.50
2023-05-01T12:30:48.901Z,1.40
2023-05-01T12:33:18.178Z,1.30
2023-05-01T12:35:46.629Z,1.60
2023-05-01T12:38:21.071Z,1.80
2023-05-01T12:40:54.211Z,1.83
2023-05-01T12:43:22.634Z,1.90
2023-05-01T12:45:53.297Z,2.03
2023-05-01T12:48:20.648Z,1.80
2023-05-01T12:50:54.248Z,1.98
2023-05-01T12:53:23.209Z,2.25
2023-05-01T12:55:51.981Z,1.92
2023-05-01T12:58:19.364Z,1.88
2023-05-01T13:00:53.020Z,2.75
2023-05-01T13:03:27.128Z,1.83
2023-05-01T13:06:01.980Z,2.20
2023-05-01T13:08:33.403Z,2.33
2023-05-01T13:11:08.868Z,1.92
2023-05-01T13:13:36.207Z,1.98
2023-05-01T13:16:07.522Z,2.33
2023-05-01T13:18:34.583Z,1.90
2023-05-01T13:21:09.674Z,2.63
2023-05-01T13:23:39.785Z,2.58
2023-05-01T13:26:08.262Z,2.65
2023-05-01T13:28:45.379Z,2.50
2023-05-01T13:31:13.961Z,2.38
2023-05-01T13:33:42.348Z,2.85
2023-05-01T13:36:24.545Z,2.50
2023-05-01T13:38:54.164Z,2.30
2023-05-01T13:41:22.189Z,2.55
2023-05-01T13:43:50.000Z,2.40
2023-05-01T13:46:21.181Z,2.47
2023-05-01T13:48:48.299Z,2.80
2023-05-01T13:51:22.287Z,2.15
2023-05-01T13:53:49.031Z,2.05
2023-05-01T13:56:16.186Z,2.60
2023-05-01T13:58:42.793Z,2.30
2023-05-01T14:01:19.136Z,2.20
2023-05-01T14:03:45.904Z,2.28
2023-05-01T14:06:14.481Z,1.90
2023-05-01T14:08:41.602Z,1.85
2023-05-01T14:11:09.528Z,1.92
2023-05-01T14:13:36.441Z,2.22
2023-05-01T14:16:11.386Z,1.73
2023-05-01T14:18:47.860Z,2.00
2023-05-01T14:21:16.324Z,2.05
2023-05-01T14:23:43.096Z,1.80
2023-05-01T14:26:11.123Z,2.00
2023-05-01T14:28:43.159Z,2.00
2023-05-01T14:31:13.933Z,1.67
2023-05-01T14:33:43.339Z,1.73
2023-05-01T14:36:10.049Z,1.90
2023-05-01T14:38:39.129Z,1.70
2023-05-01T14:41:06.276Z,2.20
2023-05-01T14:43:34.078Z,1.70
2023-05-01T14:46:00.768Z,1.95
2023-05-01T14:48:35.178Z,2.10
2023-05-01T14:51:04.864Z,1.90
2023-05-01T14:53:32.403Z,1.75
2023-05-01T14:55:59.317Z,1.60
2023-05-01T14:58:25.913Z,1.88
2023-05-01T15:00:52.514Z,1.75
2023-05-01T15:03:19.135Z,2.20
2023-05-01T15:05:45.992Z,1.98
2023-05-01T15:08:12.650Z,1.92
2023-05-01T15:10:39.205Z,2.40
2023-05-01T15:13:06.530Z,2.25
2023-05-01T15:15:33.108Z,2.53
2023-05-01T15:17:59.773Z,2.47
2023-05-01T15:20:26.457Z,2.30
2023-05-01T15:22:53.198Z,2.20
2023-05-01T15:25:19.824Z,2.47
2023-05-01T15:27:46.502Z,2.20
2023-05-01T15:30:15.439Z,2.33
2023-05-01T15:32:42.528Z,1.93
2023-05-01T15:35:09.471Z,2.30
2023-05-01T15:37:36.702Z,2.33
2023-05-01T15:40:04.290Z,2.03
2023-05-01T15:42:31.063Z,2.27
2023-05-01T15:44:58.003Z,2.13
2023-05-01T15:47:24.976Z,2.13
2023-05-01T15:49:51.587Z,2.23
2023-05-01T15:52:18.136Z,2.20
2023-05-01T15:54:47.864Z,1.90
2023-05-01T15:57:17.608Z,1.97
2023-05-01T15:59:44.657Z,2.20
2023-05-01T16:02:11.270Z,2.40
2023-05-01T16:04:38.838Z,2.43
2023-05-01T16:07:06.103Z,1.80
2023-05-01T16:09:32.872Z,2.10
2023-05-01T16:12:01.439Z,2.30
2023-05-01T16:14:28.285Z,1.80
2023-05-01T16:16:54.981Z,2.10
2023-05-01T16:19:21.608Z,1.73
2023-05-01T16:21:48.432Z,2.27
2023-05-01T16:24:15.223Z,2.40
2023-05-01T16:26:41.889Z,1.93
2023-05-01T16:29:08.565Z,1.87
2023-05-01T16:31:38.911Z,2.43
2023-05-01T16:34:06.996Z,1.60
2023-05-01T16:36:39.664Z,1.83
2023-05-01T16:39:08.363Z,1.63
2023-05-01T16:41:44.499Z,2.10
2023-05-01T16:44:12.270Z,1.67
2023-05-01T16:47:00.338Z,1.90
2023-05-01T16:49:27.483Z,1.47
2023-05-01T16:51:56.891Z,1.27
2023-05-01T16:54:24.896Z,1.50
2023-05-01T16:56:51.737Z,1.30
2023-05-01T16:59:18.446Z,1.70
2023-05-01T17:01:45.242Z,1.47
2023-05-01T17:04:13.041Z,1.50
2023-05-01T17:06:39.663Z,1.27
2023-05-01T17:09:06.613Z,1.10
2023-05-01T17:11:33.166Z,1.37
2023-05-01T17:13:59.804Z,1.55
2023-05-01T17:16:27.389Z,1.00
2023-05-01T17:18:54.117Z,1.40
2023-05-01T17:21:20.725Z,1.20
2023-05-01T17:23:47.403Z,1.10
2023-05-01T17:26:15.857Z,1.13
2023-05-01T17:28:44.602Z,1.20
2023-05-01T17:31:11.172Z,1.10
2023-05-01T17:33:37.844Z,0.90
2023-05-01T17:36:04.673Z,1.27
2023-05-01T17:38:34.379Z,0.90
2023-05-01T17:41:01.201Z,1.00
2023-05-01T17:43:27.751Z,1.00
2023-05-01T17:45:54.760Z,1.20
2023-05-01T17:48:21.605Z,1.10
2023-05-01T17:50:48.858Z,1.10
2023-05-01T17:53:15.450Z,1.40
2023-05-01T17:55:42.090Z,1.27
2023-05-01T17:58:08.726Z,1.20
2023-05-01T18:00:35.693Z,1.30
2023-05-01T18:03:02.396Z,1.40
2023-05-01T18:05:29.052Z,1.13
2023-05-01T18:07:55.953Z,0.93
2023-05-01T18:10:22.676Z,1.20
2023-05-01T18:12:49.772Z,1.17
2023-05-01T18:15:22.414Z,0.90
2023-05-01T18:17:49.975Z,0.90
2023-05-01T18:20:16.666Z,0.93
2023-05-01T18:22:43.309Z,1.07
2023-05-01T18:25:10.034Z,1.30
2023-05-01T18:27:38.118Z,1.10
2023-05-01T18:30:05.625Z,1.47
2023-05-01T18:32:46.361Z,1.30
2023-05-01T18:35:15.251Z,1.20
2023-05-01T18:37:42.766Z,1.20
2023-05-01T18:40:09.980Z,1.23
2023-05-01T18:42:36.744Z,1.30
2023-05-01T18:45:03.949Z,1.00
2023-05-01T18:47:32.305Z,0.97
2023-05-01T18:49:59.997Z,0.90
2023-05-01T18:52:27.759Z,0.80
2023-05-01T18:54:54.324Z,1.10
2023-05-01T18:57:21.047Z,1.30
2023-05-01T18:59:47.641Z,0.90
2023-05-01T19:02:14.208Z,1.00
2023-05-01T19:04:55.854Z,1.10
2023-05-01T19:07:24.672Z,1.30
2023-05-01T19:09:51.257Z,1.00
2023-05-01T19:12:17.846Z,1.40
2023-05-01T19:14:44.442Z,1.37
2023-05-01T19:17:11.086Z,1.30
2023-05-01T19:19:37.719Z,1.23
2023-05-01T19:22:04.636Z,1.53
2023-05-01T19:24:31.222Z,1.40
2023-05-01T19:26:57.922Z,1.70
2023-05-01T19:29:25.718Z,1.40
2023-05-01T19:31:52.607Z,1.50
2023-05-01T19:34:20.177Z,1.60
2023-05-01T19:36:46.802Z,1.90
2023-05-01T19:39:13.840Z,1.80
2023-05-01T19:41:40.498Z,1.63
2023-05-01T19:44:07.863Z,1.67
2023-05-01T19:46:34.476Z,1.73
2023-05-01T19:49:01.199Z,2.10
2023-05-01T19:51:28.101Z,2.10
2023-05-01T19:53:54.703Z,1.90
2023-05-01T19:56:21.370Z,2.00
2023-05-01T19:58:47.960Z,2.00
2023-05-01T20:01:14.923Z,1.77
2023-05-01T20:03:41.557Z,1.90
2023-05-01T20:06:09.134Z,1.70
2023-05-01T20:08:35.777Z,1.60
2023-05-01T20:11:02.380Z,1.80
2023-05-01T20:13:29.482Z,1.70
2023-05-01T20:15:56.227Z,2.03
2023-05-01T20:18:22.841Z,2.00
2023-05-01T20:20:49.631Z,2.77
2023-05-01T20:23:19.256Z,2.73
2023-05-01T20:25:48.660Z,2.87
2023-05-01T20:28:15.230Z,2.90
2023-05-01T20:30:44.156Z,3.27
2023-05-01T20:33:11.466Z,3.30
2023-05-01T20:35:38.371Z,3.20
2023-05-01T20:38:05.470Z,3.33
2023-05-01T20:40:33.399Z,3.67
2023-05-01T20:43:00.603Z,3.40
2023-05-01T20:45:29.102Z,3.97
2023-05-01T20:47:56.351Z,3.80
2023-05-01T20:50:23.744Z,3.37
2023-05-01T20:52:52.460Z,4.00
2023-05-01T20:55:19.504Z,3.67
2023-05-01T20:57:46.088Z,4.37
2023-05-01T21:00:13.823Z,3.50
2023-05-01T21:02:41.822Z,3.33
2023-05-01T21:05:12.101Z,5.00
2023-05-01T21:07:42.323Z,4.40
2023-05-01T21:10:10.821Z,4.50
2023-05-01T21:12:37.744Z,4.57
2023-05-01T21:15:04.959Z,4.43
2023-05-01T21:17:36.229Z,4.83
2023-05-01T21:20:10.693Z,4.73
2023-05-01T21:22:40.220Z,4.67
2023-05-01T21:25:08.284Z,4.13
2023-05-01T21:27:38.755Z,4.70
2023-05-01T21:30:06.950Z,4.33
2023-05-01T21:32:39.844Z,4.90
2023-05-01T21:35:08.132Z,4.60
2023-05-01T21:37:34.709Z,4.07
2023-05-01T21:40:02.272Z,4.33
2023-05-01T21:42:35.957Z,4.23
2023-05-01T21:45:21.512Z,3.90
2023-05-01T21:47:53.516Z,4.53
2023-05-01T21:50:21.176Z,4.50
2023-05-01T21:52:49.592Z,4.53
2023-05-01T21:55:22.228Z,4.13
2023-05-01T21:57:53.089Z,4.27
2023-05-01T22:00:20.673Z,4.47
2023-05-01T22:02:49.373Z,5.07
2023-05-01T22:05:18.268Z,4.27
2023-05-01T22:07:46.105Z,4.87
2023-05-01T22:10:14.543Z,4.43
2023-05-01T22:12:41.787Z,5.20
2023-05-01T22:15:10.709Z,5.33
2023-05-01T22:17:38.445Z,5.70
2023-05-01T22:20:07.304Z,5.63
2023-05-01T22:22:39.070Z,5.93
2023-05-01T22:25:06.170Z,6.17
2023-05-01T22:27:33.355Z,6.27
2023-05-01T22:30:00.168Z,6.60
2023-05-01T22:32:27.068Z,6.80
2023-05-01T22:34:53.835Z,6.90
2023-05-01T22:37:20.496Z,8.30
2023-05-01T22:39:47.156Z,8.17
2023-05-01T22:42:13.839Z,7.77
2023-05-01T22:44:40.844Z,6.97
2023-05-01T22:47:07.483Z,8.33
2023-05-01T22:49:34.080Z,7.27
2023-05-01T22:52:00.726Z,7.60
2023-05-01T22:54:27.329Z,7.77
2023-05-01T22:56:53.980Z,7.83
2023-05-01T22:59:21.469Z,7.33
2023-05-01T23:01:48.608Z,7.50
2023-05-01T23:04:15.554Z,7.33
2023-05-01T23:06:43.110Z,6.87
2023-05-01T23:09:09.789Z,7.57
2023-05-01T23:11:36.421Z,6.90
2023-05-01T23:14:02.984Z,6.90
2023-05-01T23:16:36.002Z,7.17
2023-05-01T23:19:03.350Z,6.67
2023-05-01T23:21:30.848Z,6.87
2023-05-01T23:23:57.496Z,7.17
2023-05-01T23:26:25.863Z,6.27
2023-05-01T23:28:53.133Z,6.03
2023-05-01T23:31:27.836Z,6.57
2023-05-01T23:33:55.296Z,5.23
2023-05-01T23:36:22.693Z,7.10
2023-05-01T23:38:49.483Z,6.03
2023-05-01T23:41:16.338Z,6.40
2023-05-01T23:43:44.371Z,6.13
2023-05-01T23:46:11.585Z,6.13
2023-05-01T23:48:38.487Z,6.07
2023-05-01T23:51:05.647Z,5.33
2023-05-01T23:53:32.448Z,4.43
2023-05-01T23:55:59.257Z,4.80
2023-05-01T23:58:25.851Z,4.37
